sensor_id;sensor_type;location;lat;lon;timestamp;temperature;humidity
3334;DHT22;1679;50.392;8.008;2023-02-21T00:02:19;7.10;99.90
3334;DHT22;1679;50.392;8.008;2023-02-21T00:05:03;7.00;99.90
3334;DHT22;1679;50.392;8.008;2023-02-21T00:07:47;7.00;99.90
3334;DHT22;1679;50.392;8.008;2023-02-21T00:10:31;7.10;99.90
3334;DHT22;1679;50.392;8.008;2023-02-21T00:13:15;7.00;99.90
3334;DHT22;1679;50.392;8.008;2023-02-21T00:15:59;6.90;99.90
3334;DHT22;1679;50.392;8.008;2023-02-21T00:18:43;6.70;99.90
3334;DHT22;1679;50.392;8.008;2023-02-21T00:21:28;6.60;99.90
3334;DHT22;1679;50.392;8.008;2023-02-21T00:24:14;6.40;99.90
3334;DHT22;1679;50.392;8.008;2023-02-21T00:26:59;6.30;99.90
3334;DHT22;1679;50.392;8.008;2023-02-21T00:29:43;6.20;99.90
3334;DHT22;1679;50.392;8.008;2023-02-21T00:32:28;6.10;99.90
3334;DHT22;1679;50.392;8.008;2023-02-21T00:35:13;6.10;99.90
3334;DHT22;1679;50.392;8.008;2023-02-21T00:37:57;6.10;99.90
3334;DHT22;1679;50.392;8.008;2023-02-21T00:40:42;6.10;99.90
3334;DHT22;1679;50.392;8.008;2023-02-21T00:43:31;6.10;99.90
3334;DHT22;1679;50.392;8.008;2023-02-21T00:46:16;6.00;99.90
3334;DHT22;1679;50.392;8.008;2023-02-21T00:49:00;6.00;99.90
3334;DHT22;1679;50.392;8.008;2023-02-21T00:51:44;6.00;99.90
3334;DHT22;1679;50.392;8.008;2023-02-21T00:54:28;5.90;99.90
3334;DHT22;1679;50.392;8.008;2023-02-21T00:57:13;5.90;99.90
3334;DHT22;1679;50.392;8.008;2023-02-21T00:59:57;5.80;99.90
3334;DHT22;1679;50.392;8.008;2023-02-21T01:02:42;5.80;99.90
3334;DHT22;1679;50.392;8.008;2023-02-21T01:05:26;5.80;99.90
3334;DHT22;1679;50.392;8.008;2023-02-21T01:08:10;5.80;99.90
3334;DHT22;1679;50.392;8.008;2023-02-21T01:10:54;5.80;99.90
3334;DHT22;1679;50.392;8.008;2023-02-21T01:13:38;5.70;99.90
3334;DHT22;1679;50.392;8.008;2023-02-21T01:16:22;5.70;99.90
3334;DHT22;1679;50.392;8.008;2023-02-21T01:19:06;5.60;99.90
3334;DHT22;1679;50.392;8.008;2023-02-21T01:21:50;5.60;99.90
3334;DHT22;1679;50.392;8.008;2023-02-21T01:24:34;5.60;99.90
3334;DHT22;1679;50.392;8.008;2023-02-21T01:27:19;5.70;99.90
3334;DHT22;1679;50.392;8.008;2023-02-21T01:30:04;5.70;99.90
3334;DHT22;1679;50.392;8.008;2023-02-21T01:32:48;5.80;99.90
3334;DHT22;1679;50.392;8.008;2023-02-21T01:35:32;5.80;99.90
3334;DHT22;1679;50.392;8.008;2023-02-21T01:38:16;5.80;99.90
3334;DHT22;1679;50.392;8.008;2023-02-21T01:41:00;5.90;99.90
3334;DHT22;1679;50.392;8.008;2023-02-21T01:44:05;5.90;99.90
3334;DHT22;1679;50.392;8.008;2023-02-21T01:46:50;6.00;99.90
3334;DHT22;1679;50.392;8.008;2023-02-21T01:49:37;6.00;99.90
3334;DHT22;1679;50.392;8.008;2023-02-21T01:52:23;6.10;99.90
3334;DHT22;1679;50.392;8.008;2023-02-21T01:55:08;6.10;99.90
3334;DHT22;1679;50.392;8.008;2023-02-21T01:57:53;6.10;99.90
3334;DHT22;1679;50.392;8.008;2023-02-21T02:00:38;6.10;99.90
3334;DHT22;1679;50.392;8.008;2023-02-21T02:03:22;6.20;99.90
3334;DHT22;1679;50.392;8.008;2023-02-21T02:06:13;6.10;99.90
3334;DHT22;1679;50.392;8.008;2023-02-21T02:08:58;6.10;99.90
3334;DHT22;1679;50.392;8.008;2023-02-21T02:12:07;6.10;99.90
3334;DHT22;1679;50.392;8.008;2023-02-21T02:15:07;6.10;99.90
3334;DHT22;1679;50.392;8.008;2023-02-21T02:20:39;6.10;99.90
3334;DHT22;1679;50.392;8.008;2023-02-21T02:23:38;6.00;99.90
3334;DHT22;1679;50.392;8.008;2023-02-21T02:37:59;6.10;99.90
3334;DHT22;1679;50.392;8.008;2023-02-21T02:40:42;6.10;99.90
3334;DHT22;1679;50.392;8.008;2023-02-21T02:43:30;6.10;99.90
3334;DHT22;1679;50.392;8.008;2023-02-21T02:46:21;6.10;99.90
3334;DHT22;1679;50.392;8.008;2023-02-21T02:49:09;6.20;99.90
3334;DHT22;1679;50.392;8.008;2023-02-21T02:51:35;6.20;99.90
3334;DHT22;1679;50.392;8.008;2023-02-21T02:54:01;6.20;99.90
3334;DHT22;1679;50.392;8.008;2023-02-21T02:56:27;6.20;99.90
3334;DHT22;1679;50.392;8.008;2023-02-21T02:58:57;6.10;99.90
3334;DHT22;1679;50.392;8.008;2023-02-21T03:04:38;6.20;99.90
3334;DHT22;1679;50.392;8.008;2023-02-21T03:15:18;6.10;99.90
3334;DHT22;1679;50.392;8.008;2023-02-21T03:20:53;6.00;99.90
3334;DHT22;1679;50.392;8.008;2023-02-21T03:23:21;6.00;99.90
3334;DHT22;1679;50.392;8.008;2023-02-21T03:25:50;5.90;99.90
3334;DHT22;1679;50.392;8.008;2023-02-21T03:28:18;5.90;99.90
3334;DHT22;1679;50.392;8.008;2023-02-21T03:30:45;5.90;99.90
3334;DHT22;1679;50.392;8.008;2023-02-21T03:33:13;5.90;99.90
3334;DHT22;1679;50.392;8.008;2023-02-21T03:35:38;5.80;99.90
3334;DHT22;1679;50.392;8.008;2023-02-21T03:38:04;5.80;99.90
3334;DHT22;1679;50.392;8.008;2023-02-21T03:40:32;5.80;99.90
3334;DHT22;1679;50.392;8.008;2023-02-21T03:43:00;5.70;99.90
3334;DHT22;1679;50.392;8.008;2023-02-21T03:45:25;5.70;99.90
3334;DHT22;1679;50.392;8.008;2023-02-21T03:47:51;5.80;99.90
3334;DHT22;1679;50.392;8.008;2023-02-21T03:50:17;5.80;99.90
3334;DHT22;1679;50.392;8.008;2023-02-21T03:52:42;5.80;99.90
3334;DHT22;1679;50.392;8.008;2023-02-21T03:55:09;5.80;99.90
3334;DHT22;1679;50.392;8.008;2023-02-21T03:57:35;5.90;99.90
3334;DHT22;1679;50.392;8.008;2023-02-21T04:00:01;6.00;99.90
3334;DHT22;1679;50.392;8.008;2023-02-21T04:02:28;6.00;99.90
3334;DHT22;1679;50.392;8.008;2023-02-21T04:04:53;6.00;99.90
3334;DHT22;1679;50.392;8.008;2023-02-21T04:07:20;6.00;99.90
3334;DHT22;1679;50.392;8.008;2023-02-21T04:09:46;6.00;99.90
3334;DHT22;1679;50.392;8.008;2023-02-21T04:12:12;6.10;99.90
3334;DHT22;1679;50.392;8.008;2023-02-21T04:14:38;6.10;99.90
3334;DHT22;1679;50.392;8.008;2023-02-21T04:17:04;6.10;99.90
3334;DHT22;1679;50.392;8.008;2023-02-21T04:19:30;6.10;99.90
3334;DHT22;1679;50.392;8.008;2023-02-21T04:21:55;6.10;99.90
3334;DHT22;1679;50.392;8.008;2023-02-21T04:24:24;6.00;99.90
3334;DHT22;1679;50.392;8.008;2023-02-21T04:26:53;5.90;99.90
3334;DHT22;1679;50.392;8.008;2023-02-21T04:29:18;5.90;99.90
3334;DHT22;1679;50.392;8.008;2023-02-21T04:31:44;5.90;99.90
3334;DHT22;1679;50.392;8.008;2023-02-21T04:34:09;5.80;99.90
3334;DHT22;1679;50.392;8.008;2023-02-21T04:36:35;5.80;99.90
3334;DHT22;1679;50.392;8.008;2023-02-21T04:39:03;5.90;99.90
3334;DHT22;1679;50.392;8.008;2023-02-21T04:41:29;5.90;99.90
3334;DHT22;1679;50.392;8.008;2023-02-21T04:43:55;5.90;99.90
3334;DHT22;1679;50.392;8.008;2023-02-21T04:46:20;5.90;99.90
3334;DHT22;1679;50.392;8.008;2023-02-21T04:48:47;5.90;99.90
3334;DHT22;1679;50.392;8.008;2023-02-21T04:51:14;5.90;99.90
3334;DHT22;1679;50.392;8.008;2023-02-21T04:53:40;6.00;99.90
3334;DHT22;1679;50.392;8.008;2023-02-21T04:56:06;6.00;99.90
3334;DHT22;1679;50.392;8.008;2023-02-21T04:58:32;6.00;99.90
3334;DHT22;1679;50.392;8.008;2023-02-21T05:00:59;6.00;99.90
3334;DHT22;1679;50.392;8.008;2023-02-21T05:03:26;6.00;99.90
3334;DHT22;1679;50.392;8.008;2023-02-21T05:05:52;6.00;99.90
3334;DHT22;1679;50.392;8.008;2023-02-21T05:08:17;6.10;99.90
3334;DHT22;1679;50.392;8.008;2023-02-21T05:10:43;6.10;99.90
3334;DHT22;1679;50.392;8.008;2023-02-21T05:13:08;6.20;99.90
3334;DHT22;1679;50.392;8.008;2023-02-21T05:15:34;6.20;99.90
3334;DHT22;1679;50.392;8.008;2023-02-21T05:18:00;6.30;99.90
3334;DHT22;1679;50.392;8.008;2023-02-21T05:20:25;6.30;99.90
3334;DHT22;1679;50.392;8.008;2023-02-21T05:22:51;6.20;99.90
3334;DHT22;1679;50.392;8.008;2023-02-21T05:25:22;6.20;99.90
3334;DHT22;1679;50.392;8.008;2023-02-21T05:27:49;6.20;99.90
3334;DHT22;1679;50.392;8.008;2023-02-21T05:30:19;6.20;99.90
3334;DHT22;1679;50.392;8.008;2023-02-21T05:32:46;6.20;99.90
3334;DHT22;1679;50.392;8.008;2023-02-21T05:35:14;6.30;99.90
3334;DHT22;1679;50.392;8.008;2023-02-21T05:37:41;6.30;99.90
3334;DHT22;1679;50.392;8.008;2023-02-21T05:40:10;6.30;99.90
3334;DHT22;1679;50.392;8.008;2023-02-21T05:42:36;6.20;99.90
3334;DHT22;1679;50.392;8.008;2023-02-21T05:45:02;6.20;99.90
3334;DHT22;1679;50.392;8.008;2023-02-21T05:47:33;6.20;99.90
3334;DHT22;1679;50.392;8.008;2023-02-21T05:50:00;6.30;99.90
3334;DHT22;1679;50.392;8.008;2023-02-21T05:52:25;6.20;99.90
3334;DHT22;1679;50.392;8.008;2023-02-21T05:54:51;6.20;99.90
3334;DHT22;1679;50.392;8.008;2023-02-21T05:57:18;6.20;99.90
3334;DHT22;1679;50.392;8.008;2023-02-21T05:59:44;6.20;99.90
3334;DHT22;1679;50.392;8.008;2023-02-21T06:02:13;6.20;99.90
3334;DHT22;1679;50.392;8.008;2023-02-21T06:04:38;6.20;99.90
3334;DHT22;1679;50.392;8.008;2023-02-21T06:07:05;6.20;99.90
3334;DHT22;1679;50.392;8.008;2023-02-21T06:09:33;6.20;99.90
3334;DHT22;1679;50.392;8.008;2023-02-21T06:11:59;6.10;99.90
3334;DHT22;1679;50.392;8.008;2023-02-21T06:14:25;6.10;99.90
3334;DHT22;1679;50.392;8.008;2023-02-21T06:16:51;6.10;99.90
3334;DHT22;1679;50.392;8.008;2023-02-21T06:19:17;6.00;99.90
3334;DHT22;1679;50.392;8.008;2023-02-21T06:21:43;6.00;99.90
3334;DHT22;1679;50.392;8.008;2023-02-21T06:24:10;6.00;99.90
3334;DHT22;1679;50.392;8.008;2023-02-21T06:26:36;6.00;99.90
3334;DHT22;1679;50.392;8.008;2023-02-21T06:29:03;6.00;99.90
3334;DHT22;1679;50.392;8.008;2023-02-21T06:31:28;5.90;99.90
3334;DHT22;1679;50.392;8.008;2023-02-21T06:33:55;5.90;99.90
3334;DHT22;1679;50.392;8.008;2023-02-21T06:36:25;5.80;99.90
3334;DHT22;1679;50.392;8.008;2023-02-21T06:38:53;5.70;99.90
3334;DHT22;1679;50.392;8.008;2023-02-21T06:41:23;5.60;99.90
3334;DHT22;1679;50.392;8.008;2023-02-21T06:43:50;5.60;99.90
3334;DHT22;1679;50.392;8.008;2023-02-21T06:46:18;5.50;99.90
3334;DHT22;1679;50.392;8.008;2023-02-21T06:48:44;5.40;99.90
3334;DHT22;1679;50.392;8.008;2023-02-21T06:51:09;5.40;99.90
3334;DHT22;1679;50.392;8.008;2023-02-21T06:53:42;5.40;99.90
3334;DHT22;1679;50.392;8.008;2023-02-21T06:56:07;5.30;99.90
3334;DHT22;1679;50.392;8.008;2023-02-21T06:58:34;5.30;99.90
3334;DHT22;1679;50.392;8.008;2023-02-21T07:01:00;5.30;99.90
3334;DHT22;1679;50.392;8.008;2023-02-21T07:03:25;5.30;99.90
3334;DHT22;1679;50.392;8.008;2023-02-21T07:05:52;5.40;99.90
3334;DHT22;1679;50.392;8.008;2023-02-21T07:08:19;5.40;99.90
3334;DHT22;1679;50.392;8.008;2023-02-21T07:10:46;5.40;99.90
3334;DHT22;1679;50.392;8.008;2023-02-21T07:13:12;5.40;99.90
3334;DHT22;1679;50.392;8.008;2023-02-21T07:15:37;5.40;99.90
3334;DHT22;1679;50.392;8.008;2023-02-21T07:18:03;5.50;99.90
3334;DHT22;1679;50.392;8.008;2023-02-21T07:20:28;5.50;99.90
3334;DHT22;1679;50.392;8.008;2023-02-21T07:22:55;5.50;99.90
3334;DHT22;1679;50.392;8.008;2023-02-21T07:25:21;5.60;99.90
3334;DHT22;1679;50.392;8.008;2023-02-21T07:27:47;5.60;99.90
3334;DHT22;1679;50.392;8.008;2023-02-21T07:30:14;5.70;99.90
3334;DHT22;1679;50.392;8.008;2023-02-21T07:32:40;5.80;99.90
3334;DHT22;1679;50.392;8.008;2023-02-21T07:35:06;5.90;99.90
3334;DHT22;1679;50.392;8.008;2023-02-21T07:37:32;6.00;99.90
3334;DHT22;1679;50.392;8.008;2023-02-21T07:39:57;6.10;99.90
3334;DHT22;1679;50.392;8.008;2023-02-21T07:42:23;6.30;99.90
3334;DHT22;1679;50.392;8.008;2023-02-21T07:44:56;6.40;99.90
3334;DHT22;1679;50.392;8.008;2023-02-21T07:47:25;6.50;99.90
3334;DHT22;1679;50.392;8.008;2023-02-21T07:49:51;6.60;99.90
3334;DHT22;1679;50.392;8.008;2023-02-21T07:52:20;6.70;99.90
3334;DHT22;1679;50.392;8.008;2023-02-21T07:54:47;6.80;99.90
3334;DHT22;1679;50.392;8.008;2023-02-21T07:57:14;6.90;99.90
3334;DHT22;1679;50.392;8.008;2023-02-21T07:59:41;7.10;99.90
3334;DHT22;1679;50.392;8.008;2023-02-21T08:02:09;7.20;99.90
3334;DHT22;1679;50.392;8.008;2023-02-21T08:04:35;7.30;99.90
3334;DHT22;1679;50.392;8.008;2023-02-21T08:07:02;7.40;99.90
3334;DHT22;1679;50.392;8.008;2023-02-21T08:09:28;7.50;99.90
3334;DHT22;1679;50.392;8.008;2023-02-21T08:11:55;7.70;99.90
3334;DHT22;1679;50.392;8.008;2023-02-21T08:14:21;8.00;99.90
3334;DHT22;1679;50.392;8.008;2023-02-21T08:16:46;8.30;99.90
3334;DHT22;1679;50.392;8.008;2023-02-21T08:19:12;8.50;99.90
3334;DHT22;1679;50.392;8.008;2023-02-21T08:21:42;8.80;99.90
3334;DHT22;1679;50.392;8.008;2023-02-21T08:24:08;9.00;99.90
3334;DHT22;1679;50.392;8.008;2023-02-21T08:26:34;9.30;99.90
3334;DHT22;1679;50.392;8.008;2023-02-21T08:29:00;9.50;99.90
3334;DHT22;1679;50.392;8.008;2023-02-21T08:31:26;9.60;99.90
3334;DHT22;1679;50.392;8.008;2023-02-21T08:33:52;9.80;99.90
3334;DHT22;1679;50.392;8.008;2023-02-21T08:36:17;10.00;99.90
3334;DHT22;1679;50.392;8.008;2023-02-21T08:38:43;10.20;99.90
3334;DHT22;1679;50.392;8.008;2023-02-21T08:41:08;10.30;99.90
3334;DHT22;1679;50.392;8.008;2023-02-21T08:43:34;10.60;99.90
3334;DHT22;1679;50.392;8.008;2023-02-21T08:46:03;10.70;99.90
3334;DHT22;1679;50.392;8.008;2023-02-21T08:48:29;10.80;99.90
3334;DHT22;1679;50.392;8.008;2023-02-21T08:50:54;10.80;99.90
3334;DHT22;1679;50.392;8.008;2023-02-21T08:53:20;10.90;99.90
3334;DHT22;1679;50.392;8.008;2023-02-21T08:55:46;10.90;99.90
3334;DHT22;1679;50.392;8.008;2023-02-21T08:58:12;10.80;99.90
3334;DHT22;1679;50.392;8.008;2023-02-21T09:00:38;11.10;99.90
3334;DHT22;1679;50.392;8.008;2023-02-21T09:03:04;11.30;99.90
3334;DHT22;1679;50.392;8.008;2023-02-21T09:05:30;11.70;99.90
3334;DHT22;1679;50.392;8.008;2023-02-21T09:07:59;11.50;99.90
3334;DHT22;1679;50.392;8.008;2023-02-21T09:10:27;11.60;99.90
3334;DHT22;1679;50.392;8.008;2023-02-21T09:12:54;11.50;99.90
3334;DHT22;1679;50.392;8.008;2023-02-21T09:15:20;11.50;99.90
3334;DHT22;1679;50.392;8.008;2023-02-21T09:17:46;11.30;99.90
3334;DHT22;1679;50.392;8.008;2023-02-21T09:20:16;11.10;99.90
3334;DHT22;1679;50.392;8.008;2023-02-21T09:22:43;10.90;99.90
3334;DHT22;1679;50.392;8.008;2023-02-21T09:25:13;10.90;99.90
3334;DHT22;1679;50.392;8.008;2023-02-21T09:27:39;10.80;99.90
3334;DHT22;1679;50.392;8.008;2023-02-21T09:30:08;10.60;99.90
3334;DHT22;1679;50.392;8.008;2023-02-21T09:32:34;10.40;99.90
3334;DHT22;1679;50.392;8.008;2023-02-21T09:35:01;10.40;99.90
3334;DHT22;1679;50.392;8.008;2023-02-21T09:37:27;10.40;99.90
3334;DHT22;1679;50.392;8.008;2023-02-21T09:39:52;10.40;99.90
3334;DHT22;1679;50.392;8.008;2023-02-21T09:42:18;10.40;99.90
3334;DHT22;1679;50.392;8.008;2023-02-21T09:44:46;10.40;99.90
3334;DHT22;1679;50.392;8.008;2023-02-21T09:47:42;10.50;99.90
3334;DHT22;1679;50.392;8.008;2023-02-21T09:50:15;10.80;99.90
3334;DHT22;1679;50.392;8.008;2023-02-21T09:52:41;11.00;99.90
3334;DHT22;1679;50.392;8.008;2023-02-21T09:55:31;11.40;99.90
3334;DHT22;1679;50.392;8.008;2023-02-21T09:57:58;11.60;99.90
3334;DHT22;1679;50.392;8.008;2023-02-21T10:00:35;11.80;99.90
3334;DHT22;1679;50.392;8.008;2023-02-21T10:05:46;12.00;99.90
3334;DHT22;1679;50.392;8.008;2023-02-21T10:11:01;11.90;99.90
3334;DHT22;1679;50.392;8.008;2023-02-21T10:13:37;11.90;99.90
3334;DHT22;1679;50.392;8.008;2023-02-21T10:16:15;12.00;99.90
3334;DHT22;1679;50.392;8.008;2023-02-21T10:19:02;12.20;99.90
3334;DHT22;1679;50.392;8.008;2023-02-21T10:21:47;12.50;99.90
3334;DHT22;1679;50.392;8.008;2023-02-21T10:24:22;12.70;99.90
3334;DHT22;1679;50.392;8.008;2023-02-21T10:27:11;12.70;99.90
3334;DHT22;1679;50.392;8.008;2023-02-21T10:29:49;12.70;99.90
3334;DHT22;1679;50.392;8.008;2023-02-21T10:32:17;12.70;99.90
3334;DHT22;1679;50.392;8.008;2023-02-21T10:34:46;12.70;99.90
3334;DHT22;1679;50.392;8.008;2023-02-21T10:40:34;12.60;99.90
3334;DHT22;1679;50.392;8.008;2023-02-21T10:43:12;12.50;99.90
3334;DHT22;1679;50.392;8.008;2023-02-21T10:48:23;12.10;99.90
3334;DHT22;1679;50.392;8.008;2023-02-21T10:53:29;12.00;99.90
3334;DHT22;1679;50.392;8.008;2023-02-21T10:58:51;12.10;99.90
3334;DHT22;1679;50.392;8.008;2023-02-21T11:04:00;12.00;99.90
3334;DHT22;1679;50.392;8.008;2023-02-21T11:08:51;12.10;99.90
3334;DHT22;1679;50.392;8.008;2023-02-21T11:11:58;12.10;99.90
3334;DHT22;1679;50.392;8.008;2023-02-21T11:14:25;12.10;99.90
3334;DHT22;1679;50.392;8.008;2023-02-21T11:17:05;12.10;99.90
3334;DHT22;1679;50.392;8.008;2023-02-21T11:19:42;12.00;99.90
3334;DHT22;1679;50.392;8.008;2023-02-21T11:22:08;12.10;99.90
3334;DHT22;1679;50.392;8.008;2023-02-21T11:24:49;12.10;99.90
3334;DHT22;1679;50.392;8.008;2023-02-21T11:27:15;12.10;99.90
3334;DHT22;1679;50.392;8.008;2023-02-21T11:29:43;12.10;99.90
3334;DHT22;1679;50.392;8.008;2023-02-21T11:32:19;12.40;99.90
3334;DHT22;1679;50.392;8.008;2023-02-21T11:35:22;12.40;99.90
3334;DHT22;1679;50.392;8.008;2023-02-21T11:37:54;12.40;99.90
3334;DHT22;1679;50.392;8.008;2023-02-21T11:45:40;12.50;99.90
3334;DHT22;1679;50.392;8.008;2023-02-21T11:48:13;12.40;99.90
3334;DHT22;1679;50.392;8.008;2023-02-21T11:50:45;12.30;99.90
3334;DHT22;1679;50.392;8.008;2023-02-21T11:53:28;12.30;99.90
3334;DHT22;1679;50.392;8.008;2023-02-21T11:58:59;12.20;99.90
3334;DHT22;1679;50.392;8.008;2023-02-21T12:01:36;12.30;99.90
3334;DHT22;1679;50.392;8.008;2023-02-21T12:04:24;12.30;99.90
3334;DHT22;1679;50.392;8.008;2023-02-21T12:07:13;12.40;99.90
3334;DHT22;1679;50.392;8.008;2023-02-21T12:09:49;12.50;99.90
3334;DHT22;1679;50.392;8.008;2023-02-21T12:12:42;12.60;99.90
3334;DHT22;1679;50.392;8.008;2023-02-21T12:15:21;12.60;99.90
3334;DHT22;1679;50.392;8.008;2023-02-21T12:32:19;12.70;99.90
3334;DHT22;1679;50.392;8.008;2023-02-21T12:35:17;12.70;99.90
3334;DHT22;1679;50.392;8.008;2023-02-21T12:38:20;12.70;99.90
3334;DHT22;1679;50.392;8.008;2023-02-21T12:41:19;12.80;99.90
3334;DHT22;1679;50.392;8.008;2023-02-21T12:44:20;12.80;99.90
3334;DHT22;1679;50.392;8.008;2023-02-21T12:46:57;12.80;99.90
3334;DHT22;1679;50.392;8.008;2023-02-21T12:52:04;12.90;99.90
3334;DHT22;1679;50.392;8.008;2023-02-21T12:54:51;12.90;99.90
3334;DHT22;1679;50.392;8.008;2023-02-21T13:00:30;13.10;99.90
3334;DHT22;1679;50.392;8.008;2023-02-21T13:05:58;13.10;99.90
3334;DHT22;1679;50.392;8.008;2023-02-21T13:08:33;13.20;99.90
3334;DHT22;1679;50.392;8.008;2023-02-21T13:11:11;13.20;99.90
3334;DHT22;1679;50.392;8.008;2023-02-21T13:13:38;13.20;99.90
3334;DHT22;1679;50.392;8.008;2023-02-21T13:16:07;13.20;99.90
3334;DHT22;1679;50.392;8.008;2023-02-21T13:18:50;13.30;99.90
3334;DHT22;1679;50.392;8.008;2023-02-21T13:21:49;13.20;99.90
3334;DHT22;1679;50.392;8.008;2023-02-21T13:29:40;13.30;99.90
3334;DHT22;1679;50.392;8.008;2023-02-21T13:32:17;13.30;99.90
3334;DHT22;1679;50.392;8.008;2023-02-21T13:34:59;13.40;99.90
3334;DHT22;1679;50.392;8.008;2023-02-21T13:37:27;13.40;99.90
3334;DHT22;1679;50.392;8.008;2023-02-21T13:40:02;13.40;99.90
3334;DHT22;1679;50.392;8.008;2023-02-21T13:42:35;13.50;99.90
3334;DHT22;1679;50.392;8.008;2023-02-21T13:45:23;13.50;99.90
3334;DHT22;1679;50.392;8.008;2023-02-21T13:54:02;13.60;99.90
3334;DHT22;1679;50.392;8.008;2023-02-21T13:56:40;13.60;99.90
3334;DHT22;1679;50.392;8.008;2023-02-21T14:01:48;13.70;99.90
3334;DHT22;1679;50.392;8.008;2023-02-21T14:07:39;13.60;99.90
3334;DHT22;1679;50.392;8.008;2023-02-21T14:10:56;13.50;99.90
3334;DHT22;1679;50.392;8.008;2023-02-21T14:14:02;13.50;99.90
3334;DHT22;1679;50.392;8.008;2023-02-21T14:16:15;13.50;99.90
3334;DHT22;1679;50.392;8.008;2023-02-21T14:18:46;13.50;99.90
3334;DHT22;1679;50.392;8.008;2023-02-21T14:23:58;13.50;99.90
3334;DHT22;1679;50.392;8.008;2023-02-21T14:26:35;13.50;99.90
3334;DHT22;1679;50.392;8.008;2023-02-21T14:39:48;13.50;99.90
3334;DHT22;1679;50.392;8.008;2023-02-21T14:42:38;13.50;99.90
3334;DHT22;1679;50.392;8.008;2023-02-21T14:47:50;13.50;99.90
3334;DHT22;1679;50.392;8.008;2023-02-21T14:50:48;13.50;99.90
3334;DHT22;1679;50.392;8.008;2023-02-21T15:10:30;13.40;99.90
3334;DHT22;1679;50.392;8.008;2023-02-21T15:13:04;13.40;99.90
3334;DHT22;1679;50.392;8.008;2023-02-21T15:15:41;13.40;99.90
3334;DHT22;1679;50.392;8.008;2023-02-21T15:18:19;13.40;99.90
3334;DHT22;1679;50.392;8.008;2023-02-21T15:21:01;13.50;99.90
3334;DHT22;1679;50.392;8.008;2023-02-21T15:23:27;13.50;99.90
3334;DHT22;1679;50.392;8.008;2023-02-21T15:25:59;13.50;99.90
3334;DHT22;1679;50.392;8.008;2023-02-21T15:28:30;13.50;99.90
3334;DHT22;1679;50.392;8.008;2023-02-21T15:31:05;13.50;99.90
3334;DHT22;1679;50.392;8.008;2023-02-21T15:33:37;13.40;99.90
3334;DHT22;1679;50.392;8.008;2023-02-21T15:36:17;13.30;99.90
3334;DHT22;1679;50.392;8.008;2023-02-21T15:38:54;13.30;99.90
3334;DHT22;1679;50.392;8.008;2023-02-21T15:41:29;13.30;99.90
3334;DHT22;1679;50.392;8.008;2023-02-21T15:44:04;13.20;99.90
3334;DHT22;1679;50.392;8.008;2023-02-21T15:46:37;13.10;99.90
3334;DHT22;1679;50.392;8.008;2023-02-21T15:49:04;13.10;99.90
3334;DHT22;1679;50.392;8.008;2023-02-21T15:51:31;13.10;99.90
3334;DHT22;1679;50.392;8.008;2023-02-21T15:54:07;13.10;99.90
3334;DHT22;1679;50.392;8.008;2023-02-21T15:56:35;13.10;99.90
3334;DHT22;1679;50.392;8.008;2023-02-21T16:01:36;12.90;99.90
3334;DHT22;1679;50.392;8.008;2023-02-21T16:04:19;12.70;99.90
3334;DHT22;1679;50.392;8.008;2023-02-21T16:06:51;12.60;99.90
3334;DHT22;1679;50.392;8.008;2023-02-21T16:09:24;12.50;99.90
3334;DHT22;1679;50.392;8.008;2023-02-21T16:14:46;12.20;99.90
3334;DHT22;1679;50.392;8.008;2023-02-21T16:17:38;12.10;99.90
3334;DHT22;1679;50.392;8.008;2023-02-21T16:20:12;12.00;99.90
3334;DHT22;1679;50.392;8.008;2023-02-21T16:22:43;11.90;99.90
3334;DHT22;1679;50.392;8.008;2023-02-21T16:27:52;11.80;99.90
3334;DHT22;1679;50.392;8.008;2023-02-21T16:30:27;11.70;99.90
3334;DHT22;1679;50.392;8.008;2023-02-21T16:32:59;11.80;99.90
3334;DHT22;1679;50.392;8.008;2023-02-21T16:35:25;11.70;99.90
3334;DHT22;1679;50.392;8.008;2023-02-21T16:37:53;11.60;99.90
3334;DHT22;1679;50.392;8.008;2023-02-21T16:40:25;11.40;99.90
3334;DHT22;1679;50.392;8.008;2023-02-21T16:42:52;11.30;99.90
3334;DHT22;1679;50.392;8.008;2023-02-21T16:45:18;11.20;99.90
3334;DHT22;1679;50.392;8.008;2023-02-21T16:47:44;11.10;99.90
3334;DHT22;1679;50.392;8.008;2023-02-21T16:50:20;11.00;99.90
3334;DHT22;1679;50.392;8.008;2023-02-21T16:52:47;10.90;99.90
3334;DHT22;1679;50.392;8.008;2023-02-21T16:55:15;10.80;99.90
3334;DHT22;1679;50.392;8.008;2023-02-21T16:57:42;10.70;99.90
3334;DHT22;1679;50.392;8.008;2023-02-21T17:00:08;10.90;99.90
3334;DHT22;1679;50.392;8.008;2023-02-21T17:02:33;10.90;99.90
3334;DHT22;1679;50.392;8.008;2023-02-21T17:04:59;10.80;99.90
3334;DHT22;1679;50.392;8.008;2023-02-21T17:07:24;10.70;99.90
3334;DHT22;1679;50.392;8.008;2023-02-21T17:09:50;10.60;99.90
3334;DHT22;1679;50.392;8.008;2023-02-21T17:12:18;10.60;99.90
3334;DHT22;1679;50.392;8.008;2023-02-21T17:14:43;10.80;99.90
3334;DHT22;1679;50.392;8.008;2023-02-21T17:17:09;11.00;99.90
3334;DHT22;1679;50.392;8.008;2023-02-21T17:19:34;11.10;99.90
3334;DHT22;1679;50.392;8.008;2023-02-21T17:22:00;11.00;99.90
3334;DHT22;1679;50.392;8.008;2023-02-21T17:24:25;10.90;99.90
3334;DHT22;1679;50.392;8.008;2023-02-21T17:26:52;10.80;99.90
3334;DHT22;1679;50.392;8.008;2023-02-21T17:29:20;10.80;99.90
3334;DHT22;1679;50.392;8.008;2023-02-21T17:31:53;10.80;99.90
3334;DHT22;1679;50.392;8.008;2023-02-21T17:34:20;10.80;99.90
3334;DHT22;1679;50.392;8.008;2023-02-21T17:36:50;10.80;99.90
3334;DHT22;1679;50.392;8.008;2023-02-21T17:39:18;10.90;99.90
3334;DHT22;1679;50.392;8.008;2023-02-21T17:41:45;10.80;99.90
3334;DHT22;1679;50.392;8.008;2023-02-21T17:44:11;10.80;99.90
3334;DHT22;1679;50.392;8.008;2023-02-21T17:46:36;10.80;99.90
3334;DHT22;1679;50.392;8.008;2023-02-21T17:49:03;10.70;99.90
3334;DHT22;1679;50.392;8.008;2023-02-21T17:51:29;10.60;99.90
3334;DHT22;1679;50.392;8.008;2023-02-21T17:53:55;10.50;99.90
3334;DHT22;1679;50.392;8.008;2023-02-21T17:56:23;10.30;99.90
3334;DHT22;1679;50.392;8.008;2023-02-21T17:58:51;10.20;99.90
3334;DHT22;1679;50.392;8.008;2023-02-21T18:01:20;10.00;99.90
3334;DHT22;1679;50.392;8.008;2023-02-21T18:03:47;9.80;99.90
3334;DHT22;1679;50.392;8.008;2023-02-21T18:06:14;9.60;99.90
3334;DHT22;1679;50.392;8.008;2023-02-21T18:08:39;9.50;99.90
3334;DHT22;1679;50.392;8.008;2023-02-21T18:11:10;9.30;99.90
3334;DHT22;1679;50.392;8.008;2023-02-21T18:13:36;9.20;99.90
3334;DHT22;1679;50.392;8.008;2023-02-21T18:16:02;9.20;99.90
3334;DHT22;1679;50.392;8.008;2023-02-21T18:18:30;9.20;99.90
3334;DHT22;1679;50.392;8.008;2023-02-21T18:20:55;9.30;99.90
3334;DHT22;1679;50.392;8.008;2023-02-21T18:23:26;9.50;99.90
3334;DHT22;1679;50.392;8.008;2023-02-21T18:25:52;9.40;99.90
3334;DHT22;1679;50.392;8.008;2023-02-21T18:28:17;9.30;99.90
3334;DHT22;1679;50.392;8.008;2023-02-21T18:30:43;9.20;99.90
3334;DHT22;1679;50.392;8.008;2023-02-21T18:33:09;9.00;99.90
3334;DHT22;1679;50.392;8.008;2023-02-21T18:35:35;8.90;99.90
3334;DHT22;1679;50.392;8.008;2023-02-21T18:38:00;8.90;99.90
3334;DHT22;1679;50.392;8.008;2023-02-21T18:40:27;8.80;99.90
3334;DHT22;1679;50.392;8.008;2023-02-21T18:43:00;8.70;99.90
3334;DHT22;1679;50.392;8.008;2023-02-21T18:45:26;8.50;99.90
3334;DHT22;1679;50.392;8.008;2023-02-21T18:47:52;8.40;99.90
3334;DHT22;1679;50.392;8.008;2023-02-21T18:50:19;8.40;99.90
3334;DHT22;1679;50.392;8.008;2023-02-21T18:52:44;8.40;99.90
3334;DHT22;1679;50.392;8.008;2023-02-21T18:55:11;8.30;99.90
3334;DHT22;1679;50.392;8.008;2023-02-21T18:57:36;8.20;99.90
3334;DHT22;1679;50.392;8.008;2023-02-21T19:00:05;8.10;99.90
3334;DHT22;1679;50.392;8.008;2023-02-21T19:02:31;8.10;99.90
3334;DHT22;1679;50.392;8.008;2023-02-21T19:04:58;8.10;99.90